sensor_id;sensor_type;location;lat;lon;timestamp;P1;durP1;ratioP1;P2;durP2;ratioP2
16383;SDS011;8301;51.440;6.610;2022-07-03T00:00:53;0.20;;;0.20;;
16383;SDS011;8301;51.440;6.610;2022-07-03T00:03:21;0.30;;;0.30;;
16383;SDS011;8301;51.440;6.610;2022-07-03T00:05:55;0.20;;;0.20;;
16383;SDS011;8301;51.440;6.610;2022-07-03T00:08:23;0.30;;;0.30;;
16383;SDS011;8301;51.440;6.610;2022-07-03T00:10:53;0.20;;;0.20;;
16383;SDS011;8301;51.440;6.610;2022-07-03T00:13:21;0.30;;;0.30;;
16383;SDS011;8301;51.440;6.610;2022-07-03T00:15:49;0.30;;;0.30;;
16383;SDS011;8301;51.440;6.610;2022-07-03T00:18:16;0.30;;;0.30;;
16383;SDS011;8301;51.440;6.610;2022-07-03T00:20:54;0.30;;;0.30;;
16383;SDS011;8301;51.440;6.610;2022-07-03T00:23:29;0.23;;;0.23;;
16383;SDS011;8301;51.440;6.610;2022-07-03T00:25:59;0.20;;;0.20;;
16383;SDS011;8301;51.440;6.610;2022-07-03T00:28:29;0.40;;;0.40;;
16383;SDS011;8301;51.440;6.610;2022-07-03T00:31:04;0.30;;;0.30;;
16383;SDS011;8301;51.440;6.610;2022-07-03T00:33:37;0.30;;;0.30;;
16383;SDS011;8301;51.440;6.610;2022-07-03T00:36:05;0.30;;;0.30;;
16383;SDS011;8301;51.440;6.610;2022-07-03T00:38:33;0.20;;;0.20;;
16383;SDS011;8301;51.440;6.610;2022-07-03T00:41:01;0.20;;;0.20;;
16383;SDS011;8301;51.440;6.610;2022-07-03T00:43:30;0.37;;;0.37;;
16383;SDS011;8301;51.440;6.610;2022-07-03T00:46:03;0.20;;;0.20;;
16383;SDS011;8301;51.440;6.610;2022-07-03T00:48:30;0.30;;;0.30;;
16383;SDS011;8301;51.440;6.610;2022-07-03T00:51:01;0.30;;;0.30;;
16383;SDS011;8301;51.440;6.610;2022-07-03T00:53:33;0.20;;;0.20;;
16383;SDS011;8301;51.440;6.610;2022-07-03T00:56:10;0.20;;;0.20;;
16383;SDS011;8301;51.440;6.610;2022-07-03T00:58:40;0.20;;;0.20;;
16383;SDS011;8301;51.440;6.610;2022-07-03T01:01:08;0.20;;;0.20;;
16383;SDS011;8301;51.440;6.610;2022-07-03T01:03:39;0.30;;;0.30;;
16383;SDS011;8301;51.440;6.610;2022-07-03T01:06:14;0.20;;;0.20;;
16383;SDS011;8301;51.440;6.610;2022-07-03T01:11:28;0.20;;;0.20;;
16383;SDS011;8301;51.440;6.610;2022-07-03T01:14:06;0.45;;;0.45;;
16383;SDS011;8301;51.440;6.610;2022-07-03T01:19:40;0.20;;;0.20;;
16383;SDS011;8301;51.440;6.610;2022-07-03T01:25:26;0.23;;;0.23;;
16383;SDS011;8301;51.440;6.610;2022-07-03T01:31:10;0.20;;;0.20;;
16383;SDS011;8301;51.440;6.610;2022-07-03T01:33:54;0.35;;;0.35;;
16383;SDS011;8301;51.440;6.610;2022-07-03T01:36:21;0.30;;;0.30;;
16383;SDS011;8301;51.440;6.610;2022-07-03T01:38:51;0.20;;;0.20;;
16383;SDS011;8301;51.440;6.610;2022-07-03T01:41:21;0.20;;;0.20;;
16383;SDS011;8301;51.440;6.610;2022-07-03T01:43:55;0.33;;;0.33;;
16383;SDS011;8301;51.440;6.610;2022-07-03T01:46:28;0.20;;;0.20;;
16383;SDS011;8301;51.440;6.610;2022-07-03T01:49:01;0.30;;;0.30;;
16383;SDS011;8301;51.440;6.610;2022-07-03T01:51:32;0.20;;;0.20;;
16383;SDS011;8301;51.440;6.610;2022-07-03T01:54:01;0.30;;;0.30;;
16383;SDS011;8301;51.440;6.610;2022-07-03T01:56:30;0.20;;;0.20;;
16383;SDS011;8301;51.440;6.610;2022-07-03T01:59:00;0.20;;;0.20;;
16383;SDS011;8301;51.440;6.610;2022-07-03T02:01:33;0.40;;;0.40;;
16383;SDS011;8301;51.440;6.610;2022-07-03T02:04:17;0.20;;;0.20;;
16383;SDS011;8301;51.440;6.610;2022-07-03T02:07:08;0.20;;;0.20;;
16383;SDS011;8301;51.440;6.610;2022-07-03T02:09:54;77.53;;;21.77;;
16383;SDS011;8301;51.440;6.610;2022-07-03T02:12:18;0.20;;;0.20;;
16383;SDS011;8301;51.440;6.610;2022-07-03T02:14:51;0.20;;;0.20;;
16383;SDS011;8301;51.440;6.610;2022-07-03T02:17:24;0.20;;;0.20;;
16383;SDS011;8301;51.440;6.610;2022-07-03T02:20:10;0.23;;;0.23;;
16383;SDS011;8301;51.440;6.610;2022-07-03T02:22:35;9.23;;;3.72;;
16383;SDS011;8301;51.440;6.610;2022-07-03T02:25:05;0.20;;;0.20;;
16383;SDS011;8301;51.440;6.610;2022-07-03T02:27:42;0.20;;;0.20;;
16383;SDS011;8301;51.440;6.610;2022-07-03T02:30:11;1999.90;;;915.10;;
16383;SDS011;8301;51.440;6.610;2022-07-03T02:32:51;1999.90;;;999.90;;
16383;SDS011;8301;51.440;6.610;2022-07-03T17:31:20;1999.90;;;999.90;;
16383;SDS011;8301;51.440;6.610;2022-07-03T17:33:52;0.20;;;0.20;;
16383;SDS011;8301;51.440;6.610;2022-07-03T17:36:22;1999.90;;;999.90;;
16383;SDS011;8301;51.440;6.610;2022-07-03T18:08:35;1341.90;;;645.15;;
16383;SDS011;8301;51.440;6.610;2022-07-03T18:13:47;6.08;;;0.75;;
16383;SDS011;8301;51.440;6.610;2022-07-03T18:16:31;1124.92;;;542.27;;
16383;SDS011;8301;51.440;6.610;2022-07-03T18:18:59;1999.90;;;999.90;;
16383;SDS011;8301;51.440;6.610;2022-07-03T18:21:33;698.35;;;279.35;;
16383;SDS011;8301;51.440;6.610;2022-07-03T18:24:01;1999.90;;;999.90;;
16383;SDS011;8301;51.440;6.610;2022-07-03T18:29:15;1999.90;;;985.77;;
16383;SDS011;8301;51.440;6.610;2022-07-03T18:34:13;1999.90;;;863.10;;
16383;SDS011;8301;51.440;6.610;2022-07-03T18:36:44;1099.63;;;749.42;;
16383;SDS011;8301;51.440;6.610;2022-07-03T18:41:47;1556.95;;;841.17;;
16383;SDS011;8301;51.440;6.610;2022-07-03T18:49:10;1356.55;;;831.25;;
16383;SDS011;8301;51.440;6.610;2022-07-03T19:51:33;784.70;;;674.20;;
16383;SDS011;8301;51.440;6.610;2022-07-03T19:54:01;828.40;;;682.73;;
16383;SDS011;8301;51.440;6.610;2022-07-03T19:56:29;930.48;;;712.65;;
16383;SDS011;8301;51.440;6.610;2022-07-03T19:58:56;833.85;;;684.15;;
16383;SDS011;8301;51.440;6.610;2022-07-03T20:03:58;990.50;;;718.60;;
16383;SDS011;8301;51.440;6.610;2022-07-03T20:06:31;967.77;;;733.38;;
16383;SDS011;8301;51.440;6.610;2022-07-03T20:09:14;967.02;;;728.85;;
16383;SDS011;8301;51.440;6.610;2022-07-03T20:11:42;847.60;;;689.10;;
16383;SDS011;8301;51.440;6.610;2022-07-03T20:14:14;870.80;;;714.52;;
16383;SDS011;8301;51.440;6.610;2022-07-03T20:16:50;995.45;;;747.87;;
16383;SDS011;8301;51.440;6.610;2022-07-03T20:21:51;1398.13;;;772.77;;
16383;SDS011;8301;51.440;6.610;2022-07-03T20:24:21;854.57;;;568.57;;
16383;SDS011;8301;51.440;6.610;2022-07-03T20:27:00;1199.08;;;733.48;;
16383;SDS011;8301;51.440;6.610;2022-07-03T20:29:44;1624.53;;;811.25;;
